createdAt,value
2019-03-12T00:00:35.063Z,4.10
2019-03-12T00:02:59.469Z,4.29
2019-03-12T00:05:23.902Z,4.20
2019-03-12T00:07:48.307Z,4.22
2019-03-12T00:10:12.895Z,4.25
2019-03-12T00:12:37.316Z,4.24
2019-03-12T00:15:01.795Z,4.26
2019-03-12T00:17:26.208Z,4.44
2019-03-12T00:19:50.707Z,4.89
2019-03-12T00:22:15.113Z,4.20
2019-03-12T00:24:39.519Z,4.23
2019-03-12T00:27:03.943Z,4.04
2019-03-12T00:29:28.333Z,4.06
2019-03-12T00:31:52.858Z,4.10
2019-03-12T00:34:17.264Z,4.18
2019-03-12T00:36:41.779Z,4.09
2019-03-12T00:39:06.457Z,4.20
2019-03-12T00:41:30.887Z,4.27
2019-03-12T00:43:55.296Z,4.11
2019-03-12T00:46:19.811Z,3.93
2019-03-12T00:48:44.233Z,4.13
2019-03-12T00:51:08.673Z,4.22
2019-03-12T00:53:33.096Z,4.10
2019-03-12T00:55:57.521Z,4.05
2019-03-12T00:58:21.933Z,3.89
2019-03-12T01:00:46.370Z,3.66
2019-03-12T01:03:10.856Z,3.78
2019-03-12T01:05:35.259Z,3.93
2019-03-12T01:07:59.767Z,3.89
2019-03-12T01:10:24.188Z,4.02
2019-03-12T01:12:48.614Z,4.21
2019-03-12T01:15:14.606Z,4.05
2019-03-12T01:17:39.195Z,4.06
2019-03-12T01:20:05.170Z,4.09
2019-03-12T01:22:30.304Z,3.84
2019-03-12T01:24:54.920Z,4.16
2019-03-12T01:27:19.433Z,4.24
2019-03-12T01:29:43.855Z,4.21
2019-03-12T01:32:08.315Z,4.34
2019-03-12T01:34:32.723Z,4.12
2019-03-12T01:36:57.129Z,4.12
2019-03-12T01:39:21.591Z,4.29
2019-03-12T01:41:46.002Z,4.30
2019-03-12T01:44:10.511Z,4.66
2019-03-12T01:46:35.111Z,4.68
2019-03-12T01:48:59.576Z,4.70
2019-03-12T01:51:23.972Z,4.52
2019-03-12T01:53:48.420Z,4.41
2019-03-12T01:56:12.846Z,4.38
2019-03-12T01:58:37.421Z,4.57
2019-03-12T02:01:01.847Z,4.44
2019-03-12T02:03:26.300Z,4.48
2019-03-12T02:05:50.865Z,4.49
2019-03-12T02:08:17.755Z,4.50
2019-03-12T02:10:42.161Z,4.57
2019-03-12T02:13:06.679Z,4.46
2019-03-12T02:15:31.356Z,4.78
2019-03-12T02:17:55.769Z,4.32
2019-03-12T02:20:23.139Z,4.64
2019-03-12T02:22:47.622Z,4.42
2019-03-12T02:25:14.618Z,4.30
2019-03-12T02:27:39.128Z,4.19
2019-03-12T02:30:05.912Z,4.42
2019-03-12T02:32:30.295Z,4.41
2019-03-12T02:34:54.720Z,4.55
2019-03-12T02:37:19.199Z,4.53
2019-03-12T02:39:43.641Z,4.26
2019-03-12T02:42:12.282Z,4.37
2019-03-12T02:44:34.237Z,4.19
2019-03-12T02:46:58.709Z,4.50
2019-03-12T02:49:23.205Z,4.76
2019-03-12T02:51:47.634Z,4.48
2019-03-12T02:54:12.136Z,4.50
2019-03-12T02:56:36.564Z,4.62
2019-03-12T02:59:01.228Z,4.87
2019-03-12T03:01:25.643Z,4.85
2019-03-12T03:03:50.044Z,4.86
2019-03-12T03:06:16.127Z,5.17
2019-03-12T03:08:40.555Z,5.27
2019-03-12T03:11:05.045Z,5.39
2019-03-12T03:13:29.463Z,4.80
2019-03-12T03:15:54.061Z,4.77
2019-03-12T03:18:18.581Z,4.73
2019-03-12T03:20:43.598Z,4.71
2019-03-12T03:23:08.147Z,5.07
2019-03-12T03:25:32.607Z,4.75
2019-03-12T03:27:57.117Z,4.66
2019-03-12T03:30:24.721Z,4.65
2019-03-12T03:32:49.230Z,4.72
2019-03-12T03:35:14.281Z,4.83
2019-03-12T03:37:38.704Z,5.05
2019-03-12T03:40:04.053Z,4.84
2019-03-12T03:42:28.576Z,4.87
2019-03-12T03:44:52.972Z,4.84
2019-03-12T03:47:19.815Z,4.82
2019-03-12T03:49:43.538Z,4.80
2019-03-12T03:52:07.973Z,4.80
2019-03-12T03:54:32.396Z,4.86
2019-03-12T03:56:56.824Z,4.79
2019-03-12T03:59:21.315Z,5.33
2019-03-12T04:01:45.723Z,5.36
2019-03-12T04:04:10.827Z,5.11
2019-03-12T04:06:35.367Z,5.44
2019-03-12T04:08:59.817Z,5.43
2019-03-12T04:11:26.317Z,5.24
2019-03-12T04:13:50.746Z,5.16
2019-03-12T04:16:15.169Z,5.24
2019-03-12T04:18:39.610Z,5.37
2019-03-12T04:21:04.172Z,5.25
2019-03-12T04:23:28.756Z,4.84
2019-03-12T04:25:53.161Z,5.03
2019-03-12T04:28:17.597Z,4.87
2019-03-12T04:30:42.017Z,4.98
2019-03-12T04:36:04.873Z,5.24
2019-03-12T04:38:29.274Z,5.29
2019-03-12T04:40:53.712Z,5.48
2019-03-12T04:43:18.195Z,5.57
2019-03-12T04:45:42.633Z,5.34
2019-03-12T04:48:07.045Z,5.55
2019-03-12T04:50:31.486Z,5.51
2019-03-12T04:52:55.905Z,5.73
2019-03-12T04:55:20.442Z,5.84
2019-03-12T04:57:44.921Z,5.45
2019-03-12T05:00:14.968Z,5.86
2019-03-12T05:02:39.393Z,6.09
2019-03-12T05:05:04.869Z,6.15
2019-03-12T05:07:29.380Z,5.90
2019-03-12T05:09:53.884Z,6.10
2019-03-12T05:12:18.303Z,5.85
2019-03-12T05:14:42.786Z,5.93
2019-03-12T05:17:07.555Z,5.93
2019-03-12T05:19:31.964Z,5.61
2019-03-12T05:21:56.471Z,5.67
2019-03-12T05:24:21.038Z,5.39
2019-03-12T05:26:45.534Z,5.36
2019-03-12T05:29:10.025Z,5.23
2019-03-12T05:31:34.458Z,5.51
2019-03-12T05:33:58.902Z,5.33
2019-03-12T05:36:23.476Z,5.16
2019-03-12T05:38:47.893Z,5.25
2019-03-12T05:41:12.549Z,5.56
2019-03-12T05:43:37.030Z,5.58
2019-03-12T05:46:01.532Z,5.76
2019-03-12T05:48:25.978Z,5.54
2019-03-12T05:50:50.484Z,5.61
2019-03-12T05:53:15.667Z,5.43
2019-03-12T05:55:40.083Z,5.33
2019-03-12T05:58:04.507Z,5.34
2019-03-12T06:00:28.919Z,5.45
2019-03-12T06:02:53.363Z,4.87
2019-03-12T06:05:17.783Z,5.00
2019-03-12T06:07:42.215Z,5.03
2019-03-12T06:10:09.458Z,5.28
2019-03-12T06:12:33.880Z,5.36
2019-03-12T06:14:58.306Z,5.35
2019-03-12T06:17:22.718Z,5.13
2019-03-12T06:19:47.218Z,5.08
2019-03-12T06:22:12.305Z,5.12
2019-03-12T06:24:36.842Z,4.92
2019-03-12T06:27:01.233Z,5.17
2019-03-12T06:29:25.696Z,5.02
2019-03-12T06:31:51.726Z,5.01
2019-03-12T06:34:17.806Z,5.08
2019-03-12T06:36:43.912Z,5.02
2019-03-12T06:39:25.736Z,5.07
2019-03-12T06:42:00.735Z,5.26
2019-03-12T06:44:43.135Z,5.39
2019-03-12T06:47:12.118Z,5.60
2019-03-12T06:49:44.398Z,5.58
2019-03-12T06:52:10.528Z,5.46
2019-03-12T06:54:39.797Z,5.54
2019-03-12T06:57:08.631Z,5.72
2019-03-12T06:59:46.921Z,5.88
2019-03-12T07:02:13.047Z,6.05
2019-03-12T07:04:51.281Z,5.74
2019-03-12T07:07:17.450Z,5.62
2019-03-12T07:09:59.686Z,5.52
2019-03-12T07:12:36.840Z,5.46
2019-03-12T07:15:04.985Z,5.61
2019-03-12T07:17:47.610Z,5.22
2019-03-12T07:20:13.592Z,5.56
2019-03-12T07:22:42.642Z,5.52
2019-03-12T07:25:13.653Z,5.84
2019-03-12T07:27:39.853Z,5.47
2019-03-12T07:30:14.429Z,5.62
2019-03-12T07:32:52.323Z,5.99
2019-03-12T07:35:30.109Z,5.44
2019-03-12T07:37:59.034Z,5.69
2019-03-12T07:40:41.309Z,5.85
2019-03-12T07:43:13.377Z,5.88
2019-03-12T07:45:42.578Z,6.09
2019-03-12T07:48:17.930Z,6.09
2019-03-12T07:50:43.975Z,5.79
2019-03-12T07:53:28.077Z,5.47
2019-03-12T07:55:56.593Z,5.50
2019-03-12T07:58:36.089Z,5.58
2019-03-12T08:01:05.316Z,6.13
2019-03-12T08:03:47.471Z,5.49
2019-03-12T08:06:13.518Z,5.80
2019-03-12T08:08:39.705Z,5.94
2019-03-12T08:11:11.851Z,5.67
2019-03-12T08:13:56.266Z,5.62
2019-03-12T08:16:25.392Z,5.93
2019-03-12T08:18:56.966Z,5.94
2019-03-12T08:21:34.799Z,6.35
2019-03-12T08:24:06.620Z,5.95
2019-03-12T08:26:44.746Z,6.24
2019-03-12T08:29:13.543Z,6.44
2019-03-12T08:31:42.381Z,6.44
2019-03-12T08:34:24.945Z,6.17
2019-03-12T08:36:53.737Z,6.49
2019-03-12T08:39:28.937Z,6.34
2019-03-12T08:42:00.945Z,6.85
2019-03-12T08:44:27.017Z,6.53
2019-03-12T08:47:09.972Z,6.69
2019-03-12T08:49:52.156Z,6.38
2019-03-12T08:52:21.321Z,6.79
2019-03-12T08:54:54.392Z,6.96
2019-03-12T08:57:39.225Z,7.12
2019-03-12T09:00:10.064Z,7.30
2019-03-12T09:02:39.222Z,6.77
2019-03-12T09:05:15.126Z,7.24
2019-03-12T09:07:44.103Z,7.12
2019-03-12T09:10:14.357Z,7.67
2019-03-12T09:12:40.431Z,7.61
2019-03-12T09:15:21.291Z,7.74
2019-03-12T09:17:47.355Z,7.41
2019-03-12T09:20:19.310Z,7.35
2019-03-12T09:22:54.163Z,7.08
2019-03-12T09:25:25.898Z,7.35
2019-03-12T09:28:13.673Z,7.62
2019-03-12T09:30:48.506Z,7.66
2019-03-12T09:33:14.619Z,7.75
2019-03-12T09:35:43.599Z,7.56
2019-03-12T09:38:12.801Z,7.51
2019-03-12T09:40:44.467Z,7.58
2019-03-12T09:43:22.486Z,8.03
2019-03-12T09:45:51.536Z,7.87
2019-03-12T09:48:17.607Z,8.09
2019-03-12T09:51:01.631Z,8.45
2019-03-12T09:53:36.898Z,8.43
2019-03-12T09:56:14.902Z,8.32
2019-03-12T09:58:49.916Z,8.80
2019-03-12T10:01:18.933Z,8.84
2019-03-12T10:03:53.721Z,9.00
2019-03-12T10:06:19.826Z,8.47
2019-03-12T10:08:45.872Z,9.26
2019-03-12T10:11:30.379Z,9.56
2019-03-12T10:13:56.435Z,9.31
2019-03-12T10:16:38.640Z,8.72
2019-03-12T10:19:28.142Z,9.34
2019-03-12T10:22:10.827Z,9.16
2019-03-12T10:24:39.851Z,9.10
2019-03-12T10:27:05.954Z,9.60
2019-03-12T10:29:32.034Z,10.19
2019-03-12T10:31:58.091Z,10.16
2019-03-12T10:34:36.220Z,10.13
2019-03-12T10:37:12.359Z,9.84
2019-03-12T10:39:49.878Z,9.45
2019-03-12T10:42:32.340Z,9.95
2019-03-12T10:44:58.475Z,9.63
2019-03-12T10:47:30.527Z,9.88
2019-03-12T10:49:54.977Z,10.19
2019-03-12T10:52:19.467Z,9.41
2019-03-12T10:54:43.971Z,9.85
2019-03-12T10:57:08.442Z,9.94
2019-03-12T10:59:32.938Z,9.36
2019-03-12T11:01:57.333Z,9.52
2019-03-12T11:04:21.763Z,9.71
2019-03-12T11:06:46.250Z,10.08
2019-03-12T11:09:10.762Z,9.67
2019-03-12T11:11:35.425Z,9.28
2019-03-12T11:13:59.918Z,9.26
2019-03-12T11:16:24.309Z,9.32
2019-03-12T11:18:48.738Z,9.42
2019-03-12T11:21:13.204Z,8.87
2019-03-12T11:23:37.640Z,9.07
2019-03-12T11:26:02.036Z,9.32
2019-03-12T11:28:26.912Z,9.43
2019-03-12T11:30:51.494Z,9.46
2019-03-12T11:33:15.929Z,9.32
2019-03-12T11:35:40.461Z,9.59
2019-03-12T11:38:04.864Z,9.35
2019-03-12T11:40:32.368Z,9.66
2019-03-12T11:42:55.469Z,9.28
2019-03-12T11:45:25.761Z,9.65
2019-03-12T11:47:45.995Z,10.16
2019-03-12T11:50:16.056Z,9.43
2019-03-12T11:52:40.573Z,9.84
2019-03-12T11:55:07.249Z,9.91
2019-03-12T11:57:31.646Z,10.30
2019-03-12T11:59:56.060Z,10.36
2019-03-12T12:02:20.599Z,9.93
2019-03-12T12:04:45.147Z,9.66
2019-03-12T12:07:09.624Z,9.70
2019-03-12T12:09:34.087Z,10.09
2019-03-12T12:11:58.519Z,10.10
2019-03-12T12:14:23.090Z,9.57
2019-03-12T12:16:47.590Z,9.66
2019-03-12T12:19:12.022Z,9.46
2019-03-12T12:21:36.455Z,9.73
2019-03-12T12:24:00.934Z,9.74
2019-03-12T12:26:25.435Z,10.11
2019-03-12T12:28:49.850Z,9.29
2019-03-12T12:31:14.281Z,9.24
2019-03-12T12:33:38.685Z,9.50
2019-03-12T12:36:03.355Z,9.70
2019-03-12T12:38:27.812Z,9.23
2019-03-12T12:40:52.337Z,9.34
2019-03-12T12:43:16.823Z,9.67
2019-03-12T12:45:41.307Z,9.60
2019-03-12T12:48:05.859Z,9.01
2019-03-12T12:50:30.440Z,9.02
2019-03-12T12:52:54.997Z,9.27
2019-03-12T12:55:19.483Z,9.31
2019-03-12T12:57:43.894Z,9.20
2019-03-12T13:00:11.354Z,9.07
2019-03-12T13:02:35.788Z,9.21
2019-03-12T13:05:00.358Z,9.24
2019-03-12T13:07:24.801Z,9.56
2019-03-12T13:09:49.281Z,9.26
2019-03-12T13:12:13.696Z,9.28
2019-03-12T13:14:41.687Z,9.83
2019-03-12T13:17:04.415Z,9.31
2019-03-12T13:19:28.925Z,9.24
2019-03-12T13:21:53.337Z,9.40
2019-03-12T13:24:17.752Z,9.45
2019-03-12T13:26:42.185Z,9.47
2019-03-12T13:29:06.607Z,9.49
2019-03-12T13:31:31.045Z,9.46
2019-03-12T13:33:55.519Z,9.89
2019-03-12T13:36:20.126Z,9.44
2019-03-12T13:38:46.042Z,9.56
2019-03-12T13:41:10.719Z,9.41
2019-03-12T13:43:35.204Z,9.46
2019-03-12T13:45:59.635Z,9.56
2019-03-12T13:48:24.030Z,9.83
2019-03-12T13:50:48.521Z,9.94
2019-03-12T13:53:12.946Z,10.51
2019-03-12T13:55:37.447Z,10.04
2019-03-12T13:58:01.937Z,10.25
2019-03-12T14:00:27.575Z,9.91
2019-03-12T14:02:52.256Z,9.93
2019-03-12T14:05:16.806Z,10.07
2019-03-12T14:07:41.384Z,9.66
2019-03-12T14:19:26.128Z,10.09
2019-03-12T14:22:08.387Z,10.43
2019-03-12T14:24:31.958Z,9.65
2019-03-12T14:26:55.629Z,10.10
2019-03-12T14:29:20.769Z,9.99
2019-03-12T14:31:45.260Z,9.96
2019-03-12T14:34:09.664Z,10.02
2019-03-12T14:36:34.056Z,9.76
2019-03-12T14:38:58.474Z,10.40
2019-03-12T14:41:23.003Z,10.02
2019-03-12T14:43:47.491Z,9.86
2019-03-12T14:46:12.025Z,10.13
2019-03-12T14:48:53.305Z,10.27
2019-03-12T14:51:32.472Z,9.89
2019-03-12T14:53:59.953Z,10.00
2019-03-12T14:56:27.554Z,9.93
2019-03-12T14:58:51.972Z,9.73
2019-03-12T15:01:16.426Z,9.98
2019-03-12T15:03:40.912Z,9.96
2019-03-12T15:06:05.378Z,9.78
2019-03-12T15:08:29.830Z,9.54
2019-03-12T15:10:54.292Z,9.49
2019-03-12T15:13:18.710Z,9.39
2019-03-12T15:15:43.099Z,10.19
2019-03-12T15:18:07.525Z,9.75
2019-03-12T15:20:32.014Z,10.11
2019-03-12T15:26:03.628Z,9.87
2019-03-12T15:28:45.776Z,10.10
2019-03-12T15:31:09.432Z,9.66
2019-03-12T15:33:35.486Z,9.70
2019-03-12T15:35:59.970Z,9.58
2019-03-12T15:41:31.736Z,9.87
2019-03-12T15:44:13.877Z,9.62
2019-03-12T15:46:37.537Z,9.72
2019-03-12T15:49:03.555Z,9.57
2019-03-12T15:51:28.051Z,9.52
2019-03-12T15:53:52.558Z,9.73
2019-03-12T15:56:16.978Z,9.45
2019-03-12T15:58:41.415Z,9.52
2019-03-12T16:04:07.236Z,9.38
2019-03-12T16:07:00.856Z,9.36
2019-03-12T16:09:15.134Z,9.33
2019-03-12T16:11:39.605Z,9.41
2019-03-12T16:14:04.175Z,9.35
2019-03-12T16:16:28.634Z,9.09
2019-03-12T16:18:53.028Z,9.29
2019-03-12T16:21:17.451Z,9.18
2019-03-12T16:23:41.933Z,9.20
2019-03-12T16:26:06.418Z,9.33
2019-03-12T16:28:30.893Z,9.02
2019-03-12T16:30:55.387Z,9.20
2019-03-12T16:33:19.885Z,9.22
2019-03-12T16:35:44.315Z,9.21
2019-03-12T16:38:08.738Z,9.25
2019-03-12T16:40:33.208Z,9.36
2019-03-12T16:42:57.652Z,9.51
2019-03-12T16:45:22.381Z,9.43
2019-03-12T16:47:46.794Z,9.81
2019-03-12T16:50:13.896Z,9.43
2019-03-12T16:52:38.307Z,8.90
2019-03-12T16:55:02.850Z,9.09
2019-03-12T16:57:27.286Z,8.97
2019-03-12T16:59:51.824Z,8.82
2019-03-12T17:02:16.378Z,9.20
2019-03-12T17:04:40.847Z,8.69
2019-03-12T17:07:05.631Z,9.04
2019-03-12T17:09:30.026Z,9.18
2019-03-12T17:11:54.464Z,9.02
2019-03-12T17:14:18.865Z,8.84
2019-03-12T17:16:43.361Z,9.22
2019-03-12T17:19:07.762Z,9.28
2019-03-12T17:21:32.883Z,8.93
2019-03-12T17:23:57.363Z,8.83
2019-03-12T17:26:21.831Z,9.64
2019-03-12T17:28:46.213Z,9.23
2019-03-12T17:31:10.666Z,9.44
2019-03-12T17:33:35.120Z,9.02
2019-03-12T17:35:59.508Z,8.71
2019-03-12T17:38:23.920Z,8.64
2019-03-12T17:40:48.378Z,8.84
2019-03-12T17:43:12.963Z,8.57
2019-03-12T17:45:37.419Z,8.86
2019-03-12T17:50:59.334Z,8.81
2019-03-12T17:53:23.796Z,9.09
2019-03-12T17:55:49.377Z,9.08
2019-03-12T17:58:13.814Z,8.87
2019-03-12T18:00:39.957Z,8.74
2019-03-12T18:03:04.453Z,8.66
2019-03-12T18:05:28.968Z,9.00
2019-03-12T18:07:53.457Z,8.58
2019-03-12T18:10:18.402Z,8.64
2019-03-12T18:12:42.892Z,9.00
2019-03-12T18:15:10.746Z,8.59
2019-03-12T18:17:35.166Z,8.92
2019-03-12T18:19:59.561Z,9.34
2019-03-12T18:22:24.199Z,9.07
2019-03-12T18:24:48.634Z,9.13
2019-03-12T18:27:13.147Z,8.81
2019-03-12T18:29:37.556Z,9.02
2019-03-12T18:32:02.861Z,8.91
2019-03-12T18:34:27.244Z,9.36
2019-03-12T18:36:51.769Z,8.88
2019-03-12T18:39:16.200Z,8.82
2019-03-12T18:41:40.781Z,9.03
2019-03-12T18:44:05.557Z,8.91
2019-03-12T18:46:29.968Z,8.88
2019-03-12T18:48:54.383Z,8.95
2019-03-12T18:51:18.802Z,8.80
2019-03-12T18:53:43.232Z,8.76
2019-03-12T18:56:07.767Z,9.06
2019-03-12T18:58:32.329Z,8.96
2019-03-12T19:00:58.262Z,8.91
2019-03-12T19:03:22.704Z,8.90
2019-03-12T19:05:47.103Z,9.42
2019-03-12T19:08:11.531Z,9.04
2019-03-12T19:10:35.919Z,8.99
2019-03-12T19:13:00.448Z,9.10
2019-03-12T19:15:24.930Z,8.90
2019-03-12T19:17:49.496Z,8.82
2019-03-12T19:20:20.907Z,8.92
2019-03-12T19:22:45.523Z,9.14
2019-03-12T19:25:15.393Z,8.97
2019-03-12T19:27:39.971Z,9.06
2019-03-12T19:30:07.413Z,9.00
2019-03-12T19:32:33.750Z,8.76
2019-03-12T19:34:58.282Z,8.94
2019-03-12T19:37:22.752Z,8.78
2019-03-12T19:39:47.412Z,8.90
2019-03-12T19:42:11.922Z,9.06
2019-03-12T19:44:36.387Z,8.99
2019-03-12T19:47:04.196Z,8.96
2019-03-12T19:49:27.107Z,9.00
2019-03-12T19:51:51.690Z,8.98
2019-03-12T19:54:16.199Z,9.09
2019-03-12T19:56:40.653Z,9.67
2019-03-12T19:59:05.139Z,9.13
2019-03-12T20:01:30.723Z,9.32
2019-03-12T20:03:55.210Z,9.73
2019-03-12T20:06:19.735Z,9.82
2019-03-12T20:08:44.353Z,9.43
2019-03-12T20:11:14.948Z,9.65
2019-03-12T20:13:42.425Z,9.48
2019-03-12T20:16:25.125Z,9.37
2019-03-12T20:19:01.350Z,9.26
2019-03-12T20:21:45.340Z,9.18
2019-03-12T20:24:15.840Z,9.42
2019-03-12T20:26:43.290Z,9.32
2019-03-12T20:29:30.150Z,9.32
2019-03-12T20:32:03.397Z,9.00
2019-03-12T20:34:56.757Z,9.56
2019-03-12T20:37:41.852Z,9.31
2019-03-12T20:40:26.094Z,9.13
2019-03-12T20:43:24.951Z,9.36
2019-03-12T20:46:04.333Z,9.22
2019-03-12T20:48:49.984Z,9.22
2019-03-12T20:51:35.621Z,9.48
2019-03-12T20:54:25.657Z,9.34
2019-03-12T20:57:27.826Z,9.08
2019-03-12T21:00:15.061Z,9.34
2019-03-12T21:03:05.231Z,9.13
2019-03-12T21:05:54.909Z,9.06
2019-03-12T21:08:46.655Z,9.30
2019-03-12T21:11:39.174Z,9.23
2019-03-12T21:14:39.980Z,9.09
2019-03-12T21:17:36.175Z,9.14
2019-03-12T21:20:21.557Z,9.08
2019-03-12T21:23:01.068Z,9.29
2019-03-12T21:26:04.845Z,9.24
2019-03-12T21:28:57.354Z,9.43
2019-03-12T21:31:21.943Z,9.46
2019-03-12T21:33:46.332Z,9.50
2019-03-12T21:36:10.897Z,9.53
2019-03-12T21:38:35.370Z,9.62
2019-03-12T21:40:59.800Z,9.62
2019-03-12T21:43:24.277Z,9.60
2019-03-12T21:45:48.824Z,9.63
2019-03-12T21:48:13.371Z,9.67
2019-03-12T21:50:37.879Z,9.72
2019-03-12T21:53:02.344Z,9.65
2019-03-12T21:55:26.752Z,9.64
2019-03-12T21:57:51.183Z,9.69
2019-03-12T22:00:18.625Z,10.10
2019-03-12T22:02:43.260Z,9.76
2019-03-12T22:05:07.798Z,9.70
2019-03-12T22:07:32.209Z,9.86
2019-03-12T22:09:56.603Z,9.85
2019-03-12T22:12:21.009Z,9.87
2019-03-12T22:14:45.493Z,9.91
2019-03-12T22:17:09.915Z,9.75
2019-03-12T22:19:34.292Z,9.44
2019-03-12T22:22:00.364Z,9.87
2019-03-12T22:24:24.768Z,9.87
2019-03-12T22:26:49.184Z,9.71
2019-03-12T22:29:13.602Z,9.77
2019-03-12T22:31:38.098Z,9.77
2019-03-12T22:34:02.502Z,9.74
2019-03-12T22:36:26.984Z,9.56
2019-03-12T22:38:51.465Z,9.80
2019-03-12T22:41:15.895Z,9.92
2019-03-12T22:43:40.289Z,9.89
2019-03-12T22:46:04.755Z,9.94
2019-03-12T22:48:29.170Z,9.87
2019-03-12T22:50:53.566Z,9.82
2019-03-12T22:53:17.984Z,9.81
2019-03-12T22:55:42.377Z,9.66
2019-03-12T22:58:06.802Z,9.45
2019-03-12T23:00:32.901Z,9.17
2019-03-12T23:02:57.392Z,9.45
2019-03-12T23:05:21.861Z,9.67
2019-03-12T23:07:46.412Z,9.75
2019-03-12T23:10:12.735Z,9.63
2019-03-12T23:12:37.224Z,9.78
2019-03-12T23:15:01.636Z,10.03
2019-03-12T23:17:26.064Z,9.32
2019-03-12T23:19:50.526Z,9.50
2019-03-12T23:22:14.960Z,9.84
2019-03-12T23:24:39.368Z,9.85
2019-03-12T23:27:03.771Z,9.62
2019-03-12T23:29:28.181Z,9.43
2019-03-12T23:31:52.736Z,9.39
2019-03-12T23:34:17.158Z,9.47
2019-03-12T23:36:41.630Z,9.46
2019-03-12T23:39:07.492Z,9.42
2019-03-12T23:41:31.889Z,9.33
2019-03-12T23:43:56.293Z,9.42
2019-03-12T23:46:20.749Z,9.34
2019-03-12T23:48:45.171Z,9.30
2019-03-12T23:51:09.707Z,9.23
2019-03-12T23:53:34.364Z,9.48
2019-03-12T23:55:58.854Z,9.52
2019-03-12T23:58:26.431Z,9.42
